Time;durP1;ratioP1;P1;durP2;ratioP2;P2;SDS_P1;SDS_P2;PMS_P1;PMS_P2;Temp;Humidity;BMP_temperature;BMP_pressure;BME280_temperature;BME280_humidity;BME280_pressure;Samples;Min_cycle;Max_cycle;Signal;HPM_P1;HPM_P2
2022/10/28 00:01:18;;;;;;;14.60;4.85;;;;;;;20.20;100.00;101458.50;5081123;28;20516;-74
2022/10/28 00:03:49;;;;;;;12.70;4.55;;;;;;;20.24;100.00;101467.63;5086321;27;20088;-74
2022/10/28 00:06:31;;;;;;;15.10;5.07;;;;;;;20.26;100.00;101455.94;5072920;28;20562;-72
2022/10/28 00:08:58;;;;;;;16.92;4.88;;;;;;;20.25;100.00;101457.94;5084305;28;20055;-73
2022/10/28 00:11:28;;;;;;;23.25;5.60;;;;;;;20.30;100.00;101451.00;5079020;27;20039;-72
2022/10/28 00:13:56;;;;;;;13.90;4.90;;;;;;;20.30;100.00;101459.41;5078612;28;20059;-71
2022/10/28 00:16:30;;;;;;;17.92;5.57;;;;;;;20.18;100.00;101451.72;5077718;28;20881;-72
2022/10/28 00:18:58;;;;;;;19.83;5.78;;;;;;;20.20;100.00;101438.84;5087266;28;20913;-73
2022/10/28 00:21:28;;;;;;;15.88;4.35;;;;;;;20.24;100.00;101447.94;5084473;28;20047;-75
2022/10/28 00:23:56;;;;;;;16.92;5.00;;;;;;;20.27;100.00;101444.25;5080930;28;20067;-76
2022/10/28 00:26:26;;;;;;;25.92;5.15;;;;;;;20.33;100.00;101445.28;5077020;28;20054;-75
2022/10/28 00:28:59;;;;;;;18.95;5.15;;;;;;;20.36;100.00;101447.16;5077911;28;20048;-72
2022/10/28 00:31:30;;;;;;;15.63;5.03;;;;;;;20.39;100.00;101449.09;5079069;28;20044;-73
2022/10/28 00:33:58;;;;;;;16.98;5.57;;;;;;;20.36;100.00;101449.22;5077400;28;20048;-75
2022/10/28 00:36:32;;;;;;;16.63;5.60;;;;;;;20.31;100.00;101447.72;5076693;28;20055;-73
2022/10/28 00:39:00;;;;;;;21.30;6.97;;;;;;;20.26;100.00;101445.47;5072583;28;20059;-75
2022/10/28 00:41:34;;;;;;;20.27;5.68;;;;;;;20.18;100.00;101446.13;5086468;28;20044;-74
2022/10/28 00:44:22;;;;;;;11.77;5.00;;;;;;;20.12;100.00;101440.25;5081873;27;20055;-72
2022/10/28 00:46:52;;;;;;;18.23;5.95;;;;;;;20.04;100.00;101436.06;5081616;28;20043;-75
2022/10/28 00:49:27;;;;;;;17.92;4.70;;;;;;;20.02;100.00;101430.09;5078526;28;20056;-74
2022/10/28 00:51:59;;;;;;;17.50;4.72;;;;;;;20.02;100.00;101420.88;5074461;28;20040;-75
2022/10/28 00:54:26;;;;;;;16.92;4.85;;;;;;;20.02;100.00;101430.09;5081095;28;20047;-74
2022/10/28 00:57:03;;;;;;;19.00;4.85;;;;;;;20.12;100.00;101417.78;5080724;28;20048;-71
2022/10/28 00:59:36;;;;;;;20.33;5.30;;;;;;;20.19;100.00;101428.03;5104652;28;20120;-69
2022/10/28 01:02:04;;;;;;;14.93;5.05;;;;;;;20.15;100.00;101422.50;5100660;28;20058;-73
2022/10/28 01:04:31;;;;;;;17.20;5.43;;;;;;;20.08;100.00;101419.13;5098921;28;20195;-74
2022/10/28 01:07:00;;;;;;;16.40;5.20;;;;;;;20.07;100.00;101425.94;5091542;28;20557;-74
2022/10/28 01:09:27;;;;;;;18.42;5.60;;;;;;;20.01;100.00;101420.09;5106649;28;20095;-74
2022/10/28 01:12:08;;;;;;;15.50;4.50;;;;;;;19.88;100.00;101421.28;5102443;28;20048;-73
2022/10/28 01:14:40;;;;;;;19.15;5.97;;;;;;;19.95;100.00;101427.47;5098791;28;20052;-74
2022/10/28 01:17:10;;;;;;;13.90;4.88;;;;;;;20.02;100.00;101418.06;5104869;28;20056;-73
2022/10/28 01:19:51;;;;;;;15.27;4.57;;;;;;;19.95;100.00;101419.06;5106309;28;20558;-70
2022/10/28 01:22:31;;;;;;;19.23;5.28;;;;;;;19.84;100.00;101415.75;5088055;28;20055;-70
2022/10/28 01:25:17;;;;;;;16.58;5.57;;;;;;;19.78;100.00;101413.94;5087171;28;20139;-72
2022/10/28 01:28:05;;;;;;;15.63;5.60;;;;;;;19.71;100.00;101412.09;5100891;28;20561;-71
2022/10/28 01:30:55;;;;;;;18.30;5.40;;;;;;;19.62;100.00;101411.19;5104122;28;20048;-74
2022/10/28 01:33:35;;;;;;;17.55;5.40;;;;;;;19.55;100.00;101417.78;5082855;28;20048;-74
2022/10/28 01:36:17;;;;;;;18.88;6.10;;;;;;;19.47;100.00;101407.19;5101333;28;20101;-73
2022/10/28 01:38:50;;;;;;;16.75;5.55;;;;;;;19.46;100.00;101414.00;5093053;28;20107;-74
2022/10/28 01:41:29;;;;;;;20.33;5.40;;;;;;;19.42;100.00;101421.75;5100242;28;20439;-74
2022/10/28 01:44:03;;;;;;;18.73;5.70;;;;;;;19.34;100.00;101417.56;5097805;28;20412;-73
2022/10/28 01:46:49;;;;;;;19.20;5.85;;;;;;;19.38;100.00;101419.03;5097289;28;20048;-74
2022/10/28 01:49:19;;;;;;;16.35;5.25;;;;;;;19.40;100.00;101405.34;5101510;28;20052;-74
2022/10/28 01:51:49;;;;;;;18.60;7.28;;;;;;;19.36;100.00;101403.84;5098416;28;20058;-74
2022/10/28 01:54:19;;;;;;;16.52;6.28;;;;;;;19.34;100.00;101407.09;5095659;28;20062;-73
2022/10/28 01:56:47;;;;;;;17.27;5.88;;;;;;;19.26;100.00;101393.69;5088606;28;20048;-73
2022/10/28 01:59:21;;;;;;;17.10;5.53;;;;;;;19.23;100.00;101400.94;5100936;28;20531;-74
2022/10/28 02:01:47;;;;;;;17.65;5.90;;;;;;;19.19;100.00;101389.03;5090453;28;20048;-73
2022/10/28 02:04:14;;;;;;;21.70;5.97;;;;;;;19.13;100.00;101384.41;5103791;28;20056;-74
2022/10/28 02:06:45;;;;;;;20.98;5.50;;;;;;;19.08;100.00;101390.53;5097492;28;20052;-74
2022/10/28 02:09:23;;;;;;;19.70;5.70;;;;;;;19.05;100.00;101388.59;5103075;28;20047;-73
2022/10/28 02:12:05;;;;;;;19.10;6.25;;;;;;;19.01;100.00;101385.09;5105391;28;20050;-74
2022/10/28 02:15:16;;;;;;;21.45;5.40;;;;;;;18.96;100.00;101392.03;5088597;28;20496;-74
2022/10/28 02:18:04;;;;;;;16.05;5.72;;;;;;;18.92;100.00;101396.94;5099147;28;20461;-72
2022/10/28 02:20:52;;;;;;;17.10;5.05;;;;;;;18.90;100.00;101393.78;5094785;28;20040;-72
2022/10/28 02:23:44;;;;;;;17.70;6.10;;;;;;;18.89;100.00;101383.78;5105105;28;20074;-74
2022/10/28 02:26:21;;;;;;;17.17;6.00;;;;;;;18.86;100.00;101389.50;5097930;28;20055;-74
2022/10/28 02:29:13;;;;;;;21.25;6.00;;;;;;;18.80;100.00;101388.44;5096300;28;20071;-72
2022/10/28 02:31:57;;;;;;;16.70;4.28;;;;;;;18.78;100.00;101391.69;5088820;28;20097;-73
2022/10/28 02:34:29;;;;;;;17.55;5.30;;;;;;;18.95;100.00;101400.88;5096399;28;20085;-74
2022/10/28 02:36:59;;;;;;;12.82;4.20;;;;;;;19.05;100.00;101403.44;5100004;28;20048;-73
2022/10/28 02:39:37;;;;;;;22.13;5.15;;;;;;;19.14;100.00;101397.19;5105021;28;20135;-74
2022/10/28 02:42:11;;;;;;;20.95;5.45;;;;;;;19.11;100.00;101382.03;5101370;28;20101;-74
2022/10/28 02:44:43;;;;;;;15.15;4.28;;;;;;;19.14;100.00;101383.94;5100718;28;20051;-73
2022/10/28 02:47:18;;;;;;;16.25;5.00;;;;;;;19.05;100.00;101378.19;5102211;28;20538;-73
2022/10/28 02:49:49;;;;;;;15.73;4.68;;;;;;;18.94;100.00;101383.28;5099540;28;20070;-74
2022/10/28 02:52:24;;;;;;;20.65;6.30;;;;;;;18.83;100.00;101362.34;5106728;28;20487;-73
2022/10/28 02:54:57;;;;;;;21.58;6.65;;;;;;;18.74;100.00;101368.56;5099605;28;20051;-73
2022/10/28 02:57:40;;;;;;;20.73;6.05;;;;;;;18.67;100.00;101363.13;5099601;28;20052;-73
2022/10/28 03:00:10;;;;;;;18.85;5.13;;;;;;;18.57;100.00;101357.75;5090462;28;20052;-74
2022/10/28 03:02:36;;;;;;;18.55;6.47;;;;;;;18.51;100.00;101354.69;5103252;28;20278;-73
2022/10/28 03:05:06;;;;;;;15.02;5.20;;;;;;;18.40;100.00;101362.56;5095161;28;20054;-73
2022/10/28 03:07:32;;;;;;;16.70;5.18;;;;;;;18.34;100.00;101361.47;5103983;28;20507;-73
2022/10/28 03:09:59;;;;;;;17.40;6.05;;;;;;;18.33;100.00;101367.50;5095002;28;20054;-73
2022/10/28 03:12:25;;;;;;;17.45;5.45;;;;;;;18.24;100.00;101359.69;5102104;28;20047;-72
2022/10/28 03:14:52;;;;;;;20.75;6.22;;;;;;;18.18;100.00;101352.22;5102152;28;20158;-73
2022/10/28 03:17:18;;;;;;;18.63;5.75;;;;;;;18.11;100.00;101363.56;5097468;28;20048;-71
2022/10/28 03:19:45;;;;;;;17.38;5.15;;;;;;;18.05;100.00;101366.09;5104504;28;20054;-74
2022/10/28 03:22:12;;;;;;;17.48;6.05;;;;;;;17.99;100.00;101362.25;5102239;28;20055;-71
2022/10/28 03:24:38;;;;;;;20.50;5.72;;;;;;;17.93;100.00;101355.56;5103404;28;20522;-73
2022/10/28 03:27:05;;;;;;;20.40;5.25;;;;;;;17.90;100.00;101362.03;5098545;28;20051;-72
2022/10/28 03:29:31;;;;;;;21.08;6.25;;;;;;;17.84;100.00;101361.75;5101514;28;20055;-72
2022/10/28 03:31:58;;;;;;;24.90;6.93;;;;;;;17.83;100.00;101365.75;5100119;28;20040;-73
2022/10/28 03:34:25;;;;;;;17.65;5.72;;;;;;;17.83;100.00;101359.38;5100512;28;20055;-73
2022/10/28 03:36:51;;;;;;;17.45;6.25;;;;;;;17.81;100.00;101345.81;5098583;28;20048;-72
2022/10/28 03:39:18;;;;;;;22.40;5.55;;;;;;;17.78;100.00;101345.88;5102068;28;20090;-73
2022/10/28 03:41:45;;;;;;;16.88;6.00;;;;;;;17.73;100.00;101343.59;5101776;27;20447;-73
2022/10/28 03:44:11;;;;;;;17.67;5.95;;;;;;;17.62;100.00;101335.41;5096028;28;20409;-72
2022/10/28 03:46:38;;;;;;;17.52;5.63;;;;;;;17.55;100.00;101343.16;5095204;28;20048;-74
2022/10/28 03:49:04;;;;;;;16.35;5.20;;;;;;;17.48;100.00;101337.69;5104405;28;20055;-73
2022/10/28 03:51:31;;;;;;;21.60;6.55;;;;;;;17.41;100.00;101333.00;5101183;28;20036;-74
2022/10/28 03:53:58;;;;;;;22.55;6.00;;;;;;;17.37;100.00;101332.28;5105431;28;20054;-74
2022/10/28 03:56:24;;;;;;;20.67;6.75;;;;;;;17.37;100.00;101339.88;5100457;28;20469;-73
2022/10/28 03:58:51;;;;;;;18.10;6.18;;;;;;;17.34;100.00;101333.13;5107494;28;20668;-73
2022/10/28 04:01:17;;;;;;;18.27;6.72;;;;;;;17.27;100.00;101333.28;5094843;28;20048;-73
2022/10/28 04:03:44;;;;;;;17.73;5.93;;;;;;;17.24;100.00;101324.94;5101193;28;20146;-72
2022/10/28 04:06:10;;;;;;;19.58;6.20;;;;;;;17.21;100.00;101323.78;5095488;28;20059;-74
2022/10/28 04:08:38;;;;;;;20.20;6.88;;;;;;;17.19;100.00;101325.44;5101093;28;20064;-74
2022/10/28 04:11:04;;;;;;;16.95;5.95;;;;;;;17.17;100.00;101330.66;5093214;28;20043;-71
2022/10/28 04:13:31;;;;;;;19.48;6.40;;;;;;;17.20;100.00;101327.81;5102289;28;20055;-72
2022/10/28 04:15:58;;;;;;;23.75;6.80;;;;;;;17.21;100.00;101323.00;5100106;28;20055;-72
2022/10/28 04:18:24;;;;;;;18.40;5.88;;;;;;;17.20;100.00;101333.41;5108325;28;20058;-72
2022/10/28 04:20:51;;;;;;;20.20;6.47;;;;;;;17.19;100.00;101333.81;5099806;28;20080;-73
2022/10/28 04:23:21;;;;;;;21.10;5.90;;;;;;;17.16;100.00;101341.06;5096015;28;20062;-72
2022/10/28 04:25:52;;;;;;;17.73;7.32;;;;;;;17.15;100.00;101342.28;5098533;28;20044;-73
2022/10/28 04:28:24;;;;;;;22.20;6.22;;;;;;;17.16;100.00;101341.06;5106259;28;20105;-72
2022/10/28 04:30:50;;;;;;;15.93;5.90;;;;;;;17.15;100.00;101342.28;5091496;28;20496;-73
2022/10/28 04:33:17;;;;;;;19.90;6.43;;;;;;;17.13;100.00;101338.31;5103945;28;20130;-73
2022/10/28 04:35:47;;;;;;;21.70;6.18;;;;;;;17.11;100.00;101341.53;5096119;28;20573;-73
2022/10/28 04:38:14;;;;;;;14.00;5.95;;;;;;;17.08;100.00;101338.84;5104956;28;20039;-73
2022/10/28 04:40:41;;;;;;;24.23;7.55;;;;;;;17.04;100.00;101327.69;5105845;28;20054;-73
2022/10/28 04:43:07;;;;;;;21.60;6.85;;;;;;;16.99;100.00;101335.78;5101137;28;20572;-73
2022/10/28 04:45:36;;;;;;;20.90;7.90;;;;;;;16.97;100.00;101338.22;5097290;28;20097;-73
2022/10/28 04:48:02;;;;;;;17.25;6.97;;;;;;;16.93;100.00;101343.06;5097918;28;20120;-74
2022/10/28 04:50:29;;;;;;;21.95;6.20;;;;;;;16.88;100.00;101341.53;5100649;28;20058;-74
2022/10/28 04:52:56;;;;;;;19.65;5.57;;;;;;;16.84;100.00;101342.84;5105276;28;20150;-74
2022/10/28 04:55:22;;;;;;;22.13;7.18;;;;;;;16.79;100.00;101341.31;5096095;28;20063;-74
2022/10/28 04:57:56;;;;;;;22.15;6.85;;;;;;;16.72;100.00;101347.03;5104991;28;20039;-72
2022/10/28 05:00:28;;;;;;;20.95;8.18;;;;;;;16.67;100.00;101343.94;5098263;28;20052;-71
2022/10/28 05:02:55;;;;;;;21.35;6.60;;;;;;;16.64;100.00;101345.53;5107356;28;20036;-72
2022/10/28 05:05:22;;;;;;;27.75;7.00;;;;;;;16.60;100.00;101344.81;5104689;28;20079;-71
2022/10/28 05:07:49;;;;;;;18.90;6.47;;;;;;;16.58;100.00;101349.25;5101916;28;20044;-71
2022/10/28 05:10:16;;;;;;;22.08;7.22;;;;;;;16.54;100.00;101359.69;5104456;28;20058;-72
2022/10/28 05:12:44;;;;;;;26.90;7.00;;;;;;;16.50;100.00;101361.75;5107633;28;20403;-71
2022/10/28 05:15:12;;;;;;;21.65;7.65;;;;;;;16.48;100.00;101359.38;5098720;28;20058;-71
2022/10/28 05:17:43;;;;;;;22.65;7.65;;;;;;;16.48;100.00;101353.81;5092384;28;20062;-72
2022/10/28 05:20:16;;;;;;;23.00;6.82;;;;;;;16.48;100.00;101350.22;5091815;28;20105;-71
2022/10/28 05:22:54;;;;;;;18.48;6.90;;;;;;;16.44;100.00;101346.69;5107412;28;20043;-72
2022/10/28 05:25:21;;;;;;;18.92;6.45;;;;;;;16.37;100.00;101346.75;5105585;28;20052;-72
2022/10/28 05:27:48;;;;;;;19.50;6.63;;;;;;;16.31;100.00;101354.03;5095194;28;20043;-72
2022/10/28 05:30:15;;;;;;;18.70;6.75;;;;;;;16.25;100.00;101359.28;5095510;28;20556;-71
2022/10/28 05:32:42;;;;;;;18.30;6.43;;;;;;;16.24;100.00;101348.53;5105640;28;20043;-72
2022/10/28 05:35:09;;;;;;;24.55;7.18;;;;;;;16.19;100.00;101344.22;5091591;28;20060;-73
2022/10/28 05:37:36;;;;;;;20.90;6.88;;;;;;;16.21;100.00;101347.38;5095056;28;20774;-70
2022/10/28 05:40:03;;;;;;;24.05;7.05;;;;;;;16.18;100.00;101344.63;5101265;28;20419;-73
2022/10/28 05:42:30;;;;;;;21.10;7.63;;;;;;;16.19;100.00;101357.38;5094858;28;20048;-72
2022/10/28 05:44:56;;;;;;;23.52;7.53;;;;;;;16.17;100.00;101355.03;5103025;28;20610;-70
2022/10/28 05:47:23;;;;;;;22.13;7.78;;;;;;;16.15;100.00;101357.44;5107964;28;20048;-71
2022/10/28 05:49:49;;;;;;;19.80;6.82;;;;;;;16.14;100.00;101360.66;5101962;28;20699;-69
2022/10/28 05:52:15;;;;;;;22.52;7.68;;;;;;;16.15;100.00;101356.63;5106666;28;20450;-70
2022/10/28 05:54:42;;;;;;;18.35;7.35;;;;;;;16.16;100.00;101353.44;5106258;28;20052;-73
2022/10/28 05:57:08;;;;;;;29.65;8.45;;;;;;;16.14;100.00;101343.91;5091376;28;20052;-73
2022/10/28 05:59:35;;;;;;;21.00;7.57;;;;;;;16.10;100.00;101359.91;5103182;28;20054;-72
2022/10/28 06:02:02;;;;;;;25.85;7.97;;;;;;;16.03;100.00;101357.22;5107947;28;20061;-73
2022/10/28 06:04:29;;;;;;;20.77;7.68;;;;;;;16.04;100.00;101350.41;5107755;28;20650;-70
2022/10/28 06:06:56;;;;;;;19.42;7.45;;;;;;;16.08;100.00;101357.53;5099882;28;21502;-72
2022/10/28 06:09:22;;;;;;;20.92;7.10;;;;;;;16.08;100.00;101354.75;5105067;27;20058;-73
2022/10/28 06:11:49;;;;;;;22.30;8.52;;;;;;;16.11;100.00;101353.91;5103480;28;20508;-70
2022/10/28 06:14:15;;;;;;;27.65;8.38;;;;;;;16.11;100.00;101353.09;5091113;28;20504;-72
2022/10/28 06:16:42;;;;;;;20.98;8.38;;;;;;;16.12;100.00;101354.69;5094561;28;20055;-71
2022/10/28 06:19:09;;;;;;;33.22;9.35;;;;;;;16.12;100.00;101354.69;5098780;28;20044;-72
2022/10/28 06:21:35;;;;;;;27.25;8.30;;;;;;;16.12;100.00;101355.47;5104944;28;20055;-72
2022/10/28 06:24:02;;;;;;;28.67;7.25;;;;;;;16.13;100.00;101362.63;5089177;28;20160;-72
2022/10/28 06:26:28;;;;;;;24.00;8.00;;;;;;;16.12;100.00;101360.25;5099901;28;20721;-71
2022/10/28 06:28:54;;;;;;;25.20;9.38;;;;;;;16.09;100.00;101347.94;5096563;28;20488;-73
2022/10/28 06:31:21;;;;;;;25.17;9.43;;;;;;;16.14;100.00;101355.06;5097204;28;20062;-72
2022/10/28 06:33:47;;;;;;;24.70;8.77;;;;;;;16.13;100.00;101361.88;5104367;28;20055;-72
2022/10/28 06:36:14;;;;;;;18.58;8.35;;;;;;;16.13;100.00;101359.06;5103555;28;20055;-73
2022/10/28 06:38:40;;;;;;;23.23;8.52;;;;;;;16.14;100.00;101360.66;5101464;28;20443;-73
2022/10/28 06:41:07;;;;;;;26.58;9.48;;;;;;;16.21;100.00;101355.75;5107450;28;20081;-73
2022/10/28 06:43:33;;;;;;;24.83;7.93;;;;;;;16.21;100.00;101366.13;5095871;28;20052;-73
2022/10/28 06:46:01;;;;;;;19.13;8.27;;;;;;;16.22;100.00;101364.91;5089270;28;20111;-73
2022/10/28 06:48:28;;;;;;;28.13;10.25;;;;;;;16.24;100.00;101370.88;5096526;28;20052;-73
2022/10/28 06:50:56;;;;;;;32.03;10.30;;;;;;;16.27;100.00;101365.22;5100155;28;20048;-72
2022/10/28 06:53:24;;;;;;;26.02;9.85;;;;;;;16.31;100.00;101366.00;5101739;28;20119;-71
2022/10/28 06:55:55;;;;;;;31.85;9.90;;;;;;;16.35;100.00;101363.13;5098872;28;20048;-71
2022/10/28 06:58:23;;;;;;;29.40;9.10;;;;;;;16.39;100.00;101366.66;5094541;28;20105;-71
2022/10/28 07:00:50;;;;;;;33.13;9.95;;;;;;;16.43;100.00;101373.81;5099039;28;20048;-71
2022/10/28 07:03:17;;;;;;;26.20;9.10;;;;;;;16.49;100.00;101382.50;5100956;28;20048;-72
2022/10/28 07:05:45;;;;;;;24.67;9.60;;;;;;;16.64;100.00;101383.88;5094925;28;20055;-71
2022/10/28 07:08:13;;;;;;;37.10;10.88;;;;;;;16.70;100.00;101377.38;5102544;28;20055;-71
2022/10/28 07:10:40;;;;;;;30.10;10.70;;;;;;;16.89;100.00;101379.50;5101135;27;20054;-71
2022/10/28 07:13:07;;;;;;;31.40;9.40;;;;;;;17.13;100.00;101383.88;5101112;28;20059;-71
2022/10/28 07:15:33;;;;;;;25.13;9.15;;;;;;;17.45;100.00;101388.94;5107424;28;20055;-71
2022/10/28 07:18:01;;;;;;;28.58;9.85;;;;;;;17.73;100.00;101393.97;5103740;28;20054;-74
2022/10/28 07:20:30;;;;;;;27.77;9.40;;;;;;;17.88;100.00;101389.66;5096669;28;20412;-71
2022/10/28 07:22:58;;;;;;;24.85;9.43;;;;;;;18.11;100.00;101394.38;5104042;28;20051;-73
2022/10/28 07:25:27;;;;;;;31.60;8.57;;;;;;;18.24;100.00;101403.69;5108921;28;20063;-70
2022/10/28 07:27:56;;;;;;;24.10;9.18;;;;;;;18.32;100.00;101399.53;5100700;28;20044;-73
2022/10/28 07:30:23;;;;;;;27.42;9.10;;;;;;;18.45;100.00;101411.66;5110570;28;20422;-71
2022/10/28 07:32:49;;;;;;;19.58;5.78;;;;;;;18.65;100.00;101404.81;5108066;28;20065;-71
2022/10/28 07:35:16;;;;;;;19.77;5.78;;;;;;;18.85;100.00;101411.13;5109226;28;20157;-74
2022/10/28 07:37:43;;;;;;;20.20;7.75;;;;;;;19.04;100.00;101415.09;5096093;28;20051;-74
2022/10/28 07:40:10;;;;;;;17.88;5.97;;;;;;;19.18;100.00;101418.31;5094974;28;20035;-72
2022/10/28 07:42:36;;;;;;;30.20;6.18;;;;;;;19.37;100.00;101411.06;5098733;27;20044;-73
2022/10/28 07:45:04;;;;;;;17.45;6.05;;;;;;;19.49;100.00;101419.53;5102550;28;20051;-73
2022/10/28 07:47:30;;;;;;;21.92;7.05;;;;;;;19.63;100.00;101419.16;5103756;28;20109;-71
2022/10/28 07:49:57;;;;;;;21.27;6.15;;;;;;;19.80;100.00;101406.66;5093153;28;20069;-70
2022/10/28 07:52:23;;;;;;;19.48;5.40;;;;;;;19.90;100.00;101414.00;5103164;28;20059;-69
2022/10/28 07:54:50;;;;;;;21.88;5.35;;;;;;;19.92;100.00;101400.28;5104484;28;20050;-72
2022/10/28 07:57:17;;;;;;;20.27;6.93;;;;;;;20.09;100.00;101401.00;5102142;28;20052;-69
2022/10/28 07:59:44;;;;;;;14.13;4.60;;;;;;;20.18;100.00;101403.97;5107312;28;20060;-69
2022/10/28 08:02:19;;;;;;;18.58;5.30;;;;;;;20.27;100.00;101410.53;5093699;28;20750;-70
2022/10/28 08:04:45;;;;;;;15.88;5.65;;;;;;;20.35;100.00;101409.06;5103435;28;20461;-72
2022/10/28 08:07:13;;;;;;;21.63;5.72;;;;;;;20.43;100.00;101404.78;5104327;28;20056;-71
2022/10/28 08:09:40;;;;;;;15.63;4.90;;;;;;;20.42;100.00;101411.66;5095289;28;20063;-72
2022/10/28 08:12:08;;;;;;;17.33;5.20;;;;;;;20.46;100.00;101408.75;5097661;27;20514;-71
2022/10/28 08:14:34;;;;;;;19.40;5.90;;;;;;;20.52;100.00;101401.34;5097986;28;20056;-71
2022/10/28 08:17:01;;;;;;;20.80;5.57;;;;;;;20.50;100.00;101408.63;5094736;28;20052;-71
2022/10/28 08:19:27;;;;;;;15.88;5.72;;;;;;;20.54;100.00;101415.72;5107306;27;20047;-72
2022/10/28 08:21:54;;;;;;;19.70;5.68;;;;;;;20.58;100.00;101416.38;5092814;27;20523;-72
2022/10/28 08:24:20;;;;;;;17.92;5.78;;;;;;;20.57;100.00;101414.81;5107953;28;20637;-71
2022/10/28 08:26:47;;;;;;;20.40;5.88;;;;;;;20.62;100.00;101416.28;5098279;27;20051;-73
2022/10/28 08:29:14;;;;;;;20.42;6.05;;;;;;;20.66;100.00;101416.97;5096696;28;20432;-70
2022/10/28 08:31:41;;;;;;;17.00;4.65;;;;;;;20.65;100.00;101424.59;5088017;28;20525;-69
2022/10/28 08:34:07;;;;;;;21.65;5.60;;;;;;;20.67;100.00;101424.16;5104272;28;20063;-72
2022/10/28 08:36:34;;;;;;;23.55;6.35;;;;;;;20.76;100.00;101415.84;5102095;28;20090;-71
2022/10/28 08:39:01;;;;;;;28.98;6.68;;;;;;;20.80;100.00;101420.13;5094074;28;20056;-71
2022/10/28 08:41:43;;;;;;;28.88;5.90;;;;;;;20.84;100.00;101415.16;5099641;28;20055;-72
2022/10/28 08:44:10;;;;;;;17.85;4.47;;;;;;;20.95;100.00;101412.06;5103780;28;20559;-73
2022/10/28 08:46:47;;;;;;;18.92;5.43;;;;;;;21.13;100.00;101401.00;5094358;28;20051;-72
2022/10/28 08:49:16;;;;;;;22.13;6.10;;;;;;;21.16;100.00;101408.53;5108115;28;20054;-72
2022/10/28 08:52:04;;;;;;;19.27;5.15;;;;;;;21.25;100.00;101397.34;5099081;28;20051;-72
2022/10/28 08:54:35;;;;;;;16.92;5.47;;;;;;;21.35;100.00;101404.63;5103904;28;20047;-72
2022/10/28 08:57:08;;;;;;;21.58;4.85;;;;;;;21.48;100.00;101399.75;5096022;28;20586;-71
2022/10/28 08:59:40;;;;;;;20.83;5.30;;;;;;;21.56;100.00;101393.41;5099463;27;20051;-69
2022/10/28 09:02:09;;;;;;;13.15;4.38;;;;;;;21.69;100.00;101391.34;5090441;28;21226;-70
2022/10/28 09:04:42;;;;;;;12.52;4.10;;;;;;;21.78;100.00;101379.38;5098473;28;20048;-70
2022/10/28 09:07:20;;;;;;;19.98;4.75;;;;;;;22.01;100.00;101390.97;5097511;28;20048;-71
2022/10/28 09:09:49;;;;;;;13.80;4.35;;;;;;;22.09;100.00;101389.47;5104523;28;20069;-67
2022/10/28 09:12:36;;;;;;;21.58;4.50;;;;;;;22.21;100.00;101390.66;5101841;28;20073;-67
2022/10/28 09:15:21;;;;;;;23.92;5.28;;;;;;;22.26;100.00;101392.84;5104315;28;20047;-68
2022/10/28 09:17:54;;;;;;;16.40;5.00;;;;;;;22.34;100.00;101399.81;5095878;28;20044;-69
2022/10/28 09:20:39;;;;;;;16.40;4.45;;;;;;;22.49;100.00;101381.09;5095583;27;20043;-68
2022/10/28 09:23:20;;;;;;;20.08;4.70;;;;;;;22.63;99.04;101383.34;5104726;28;20443;-67
2022/10/28 09:26:07;;;;;;;18.58;3.95;;;;;;;22.81;97.58;101383.41;5109769;28;20055;-68
2022/10/28 09:28:57;;;;;;;15.65;5.60;;;;;;;23.01;97.77;101380.97;5097854;27;20047;-68
2022/10/28 09:31:45;;;;;;;13.88;4.25;;;;;;;23.07;92.49;101390.38;5100588;28;20460;-71
2022/10/28 09:34:17;;;;;;;15.63;4.50;;;;;;;23.26;95.11;101394.06;5100760;28;20680;-72
2022/10/28 09:36:59;;;;;;;8.63;2.45;;;;;;;23.24;90.57;101388.09;5104517;28;20052;-71
2022/10/28 09:39:44;;;;;;;15.50;4.57;;;;;;;23.54;91.42;101390.81;5101971;28;20050;-72
2022/10/28 09:42:34;;;;;;;;;;;;;;;23.71;89.33;101382.78;5098162;28;20101;-69
2022/10/28 09:45:05;;;;;;;19.10;4.22;;;;;;;23.89;89.53;101385.63;5091403;28;19928;-72
2022/10/28 09:47:38;;;;;;;12.65;3.45;;;;;;;23.98;84.75;101385.63;5104589;28;20052;-72
2022/10/28 09:50:14;;;;;;;14.50;4.47;;;;;;;24.15;84.45;101387.63;5102689;28;20492;-70
2022/10/28 09:52:58;;;;;;;19.23;4.32;;;;;;;24.31;82.19;101383.66;5106141;28;20043;-71
2022/10/28 09:55:24;;;;;;;18.38;4.03;;;;;;;24.48;81.22;101391.31;5101026;27;20525;-71
2022/10/28 09:57:51;;;;;;;10.95;3.35;;;;;;;24.57;79.18;101393.31;5100425;28;20056;-71
2022/10/28 10:00:18;;;;;;;13.93;3.45;;;;;;;24.52;78.49;101389.09;5104184;28;20052;-71
2022/10/28 10:02:44;;;;;;;6.95;2.45;;;;;;;24.57;77.63;101393.31;5095403;28;20058;-72
2022/10/28 10:05:13;;;;;;;15.05;4.75;;;;;;;24.60;78.53;101389.53;5079277;28;20060;-69
2022/10/28 10:08:13;;;;;;;17.05;4.50;;;;;;;24.69;76.88;101395.97;5097079;28;20068;-71
2022/10/28 10:10:59;;;;;;;19.95;4.50;;;;;;;24.59;76.33;101402.91;5098610;28;20047;-72
2022/10/28 10:13:28;;;;;;;24.05;5.28;;;;;;;24.66;79.09;101418.78;5088038;28;20048;-71
2022/10/28 10:16:03;;;;;;;16.63;3.40;;;;;;;24.62;77.29;101406.81;5098291;28;20044;-68
2022/10/28 10:18:34;;;;;;;19.13;2.50;;;;;;;24.67;75.23;101409.81;5095290;28;20055;-72
2022/10/28 10:21:00;;;;;;;6.32;2.05;;;;;;;24.74;74.64;101417.94;5095898;28;20056;-71
2022/10/28 10:23:33;;;;;;;16.42;4.07;;;;;;;24.96;76.63;101404.34;5099046;28;20104;-72
2022/10/28 10:26:09;;;;;;;17.88;4.32;;;;;;;25.26;75.13;101404.44;5100047;28;20043;-71
2022/10/28 10:28:41;;;;;;;31.05;4.18;;;;;;;25.26;72.83;101404.44;5091198;28;20476;-71
2022/10/28 10:31:21;;;;;;;13.13;3.63;;;;;;;25.26;72.98;101399.59;5097778;28;20106;-71
2022/10/28 10:33:50;;;;;;;18.73;4.32;;;;;;;25.44;74.75;101402.31;5087114;28;20493;-72
2022/10/28 10:36:22;;;;;;;17.90;4.00;;;;;;;25.30;74.18;101405.88;5103072;28;20784;-72
2022/10/28 10:38:56;;;;;;;17.73;3.95;;;;;;;25.44;72.90;101396.66;5100357;28;20513;-71
2022/10/28 10:41:40;;;;;;;19.63;3.77;;;;;;;25.47;70.87;101403.41;5105331;28;20047;-71
2022/10/28 10:44:19;;;;;;;5.95;2.65;;;;;;;25.70;69.37;101394.06;5102928;28;20059;-71
2022/10/28 10:46:51;;;;;;;11.88;4.03;;;;;;;25.77;66.73;101394.50;5100628;28;20056;-71
2022/10/28 10:49:18;;;;;;;14.38;4.07;;;;;;;26.01;66.71;101391.59;5101759;27;20051;-70
2022/10/28 10:51:52;;;;;;;16.15;4.18;;;;;;;25.98;65.61;101395.44;5097747;28;20797;-71
2022/10/28 10:54:19;;;;;;;9.40;2.72;;;;;;;26.01;66.00;101391.59;5097539;28;20047;-71
2022/10/28 10:56:46;;;;;;;12.90;3.20;;;;;;;26.07;65.44;101389.66;5101359;28;20055;-70
2022/10/28 10:59:26;;;;;;;18.38;4.07;;;;;;;26.04;66.18;101379.28;5102465;28;20423;-72
2022/10/28 11:01:56;;;;;;;15.73;3.95;;;;;;;25.88;65.93;101394.69;5092756;28;20059;-68
2022/10/28 11:04:27;;;;;;;13.77;3.65;;;;;;;25.88;66.22;101389.03;5102562;28;20051;-69
2022/10/28 11:06:55;;;;;;;19.50;4.30;;;;;;;25.96;65.97;101383.75;5105090;28;20051;-70
2022/10/28 11:09:35;;;;;;;18.83;4.82;;;;;;;26.21;65.84;101377.53;5105402;28;20044;-70
2022/10/28 11:12:20;;;;;;;18.88;5.03;;;;;;;26.33;63.37;101373.63;5099669;27;20063;-71
2022/10/28 11:15:10;;;;;;;16.73;3.78;;;;;;;26.52;63.41;101370.06;5102520;27;20056;-66
2022/10/28 11:17:36;;;;;;;16.52;3.80;;;;;;;26.69;62.05;101364.72;5099673;28;20056;-69
2022/10/28 11:20:29;;;;;;;20.58;5.53;;;;;;;26.75;62.74;101366.34;5107785;27;20048;-70
2022/10/28 11:23:15;;;;;;;17.98;4.10;;;;;;;26.70;64.09;101357.75;5099951;28;20100;-67
2022/10/28 11:25:49;;;;;;;15.73;4.00;;;;;;;26.69;63.82;101356.97;5095654;28;20051;-67
2022/10/28 11:28:18;;;;;;;15.93;4.23;;;;;;;26.81;64.08;101349.38;5106480;28;20508;-67
2022/10/28 11:30:54;;;;;;;17.15;4.28;;;;;;;27.16;62.13;101352.97;5097899;28;20098;-67